createdAt,value
2018-07-07T00:00:35.011Z,0.00
2018-07-07T00:01:35.003Z,0.00
2018-07-07T00:02:35.011Z,0.00
2018-07-07T00:03:35.008Z,0.00
2018-07-07T00:04:35.013Z,0.00
2018-07-07T00:05:35.011Z,0.00
2018-07-07T00:06:35.015Z,0.00
2018-07-07T00:07:35.016Z,0.00
2018-07-07T00:08:35.017Z,0.00
2018-07-07T00:09:35.020Z,0.00
2018-07-07T00:10:35.022Z,0.00
2018-07-07T00:11:35.026Z,0.00
2018-07-07T00:12:35.036Z,0.00
2018-07-07T00:13:35.028Z,0.00
2018-07-07T00:14:35.029Z,0.00
2018-07-07T00:15:35.033Z,0.00
2018-07-07T00:16:35.033Z,0.00
2018-07-07T00:17:35.034Z,0.00
2018-07-07T00:18:35.037Z,0.00
2018-07-07T00:19:35.040Z,0.00
2018-07-07T00:20:35.040Z,0.00
2018-07-07T00:21:35.044Z,0.00
2018-07-07T00:22:35.045Z,0.00
2018-07-07T00:23:35.049Z,0.00
2018-07-07T00:24:35.048Z,0.00
2018-07-07T00:25:35.050Z,0.00
2018-07-07T00:26:35.051Z,0.00
2018-07-07T00:27:35.054Z,0.00
2018-07-07T00:28:35.055Z,0.00
2018-07-07T00:29:35.059Z,0.00
2018-07-07T00:30:35.059Z,0.00
2018-07-07T00:31:35.059Z,0.00
2018-07-07T00:32:35.062Z,0.00
2018-07-07T00:33:35.063Z,0.00
2018-07-07T00:34:35.066Z,0.00
2018-07-07T00:35:35.069Z,0.00
2018-07-07T00:36:35.070Z,0.00
2018-07-07T00:37:35.070Z,0.00
2018-07-07T00:38:35.072Z,0.00
2018-07-07T00:39:35.074Z,0.00
2018-07-07T00:40:35.076Z,0.00
2018-07-07T00:41:35.078Z,0.00
2018-07-07T00:42:35.078Z,0.00
2018-07-07T00:43:35.080Z,0.00
2018-07-07T00:44:35.081Z,0.00
2018-07-07T00:45:35.083Z,0.00
2018-07-07T00:46:35.084Z,0.00
2018-07-07T00:47:35.085Z,0.00
2018-07-07T00:48:35.087Z,0.00
2018-07-07T00:49:35.092Z,0.00
2018-07-07T00:50:35.092Z,0.00
2018-07-07T00:51:35.093Z,0.00
2018-07-07T00:52:35.093Z,0.00
2018-07-07T00:53:35.094Z,0.00
2018-07-07T00:54:35.099Z,0.00
2018-07-07T00:55:35.098Z,0.00
2018-07-07T00:56:35.100Z,0.00
2018-07-07T00:57:35.100Z,0.00
2018-07-07T00:58:35.102Z,0.00
2018-07-07T00:59:35.109Z,0.00
2018-07-07T01:00:35.156Z,0.00
2018-07-07T01:01:35.106Z,0.00
2018-07-07T01:02:35.108Z,0.00
2018-07-07T01:03:35.110Z,0.00
2018-07-07T01:04:35.111Z,0.00
2018-07-07T01:05:35.113Z,0.00
2018-07-07T01:06:35.114Z,0.00
2018-07-07T01:07:35.115Z,0.00
2018-07-07T01:08:35.115Z,0.00
2018-07-07T01:09:35.118Z,0.00
2018-07-07T01:10:35.119Z,0.00
2018-07-07T01:11:35.123Z,0.00
2018-07-07T01:12:35.121Z,0.00
2018-07-07T01:13:35.121Z,0.00
2018-07-07T01:14:35.124Z,0.00
2018-07-07T01:15:35.127Z,0.00
2018-07-07T01:16:35.125Z,0.00
2018-07-07T01:17:35.129Z,0.00
2018-07-07T01:18:35.129Z,0.00
2018-07-07T01:19:35.130Z,0.00
2018-07-07T01:20:35.131Z,0.00
2018-07-07T01:21:35.132Z,0.00
2018-07-07T01:22:35.134Z,0.00
2018-07-07T01:23:35.137Z,0.00
2018-07-07T01:24:35.136Z,0.00
2018-07-07T01:25:35.136Z,0.00
2018-07-07T01:26:35.139Z,0.00
2018-07-07T01:27:35.139Z,0.00
2018-07-07T01:28:35.141Z,0.00
2018-07-07T01:29:35.142Z,0.00
2018-07-07T01:30:35.143Z,0.00
2018-07-07T01:31:35.146Z,0.00
2018-07-07T01:32:35.146Z,0.00
2018-07-07T01:33:35.147Z,0.00
2018-07-07T01:34:35.149Z,0.00
2018-07-07T01:35:35.152Z,0.00
2018-07-07T01:36:35.151Z,0.00
2018-07-07T01:37:35.153Z,0.00
2018-07-07T01:38:35.154Z,0.00
2018-07-07T01:39:35.156Z,0.00
2018-07-07T01:40:35.156Z,0.00
2018-07-07T01:41:35.158Z,0.00
2018-07-07T01:42:35.159Z,0.00
2018-07-07T01:43:35.164Z,0.00
2018-07-07T01:44:35.163Z,0.00
2018-07-07T01:45:35.163Z,0.00
2018-07-07T01:46:35.165Z,0.00
2018-07-07T01:47:35.167Z,0.00
2018-07-07T01:48:35.198Z,0.00
2018-07-07T01:49:35.171Z,0.00
2018-07-07T01:50:35.169Z,0.00
2018-07-07T01:51:35.172Z,0.00
2018-07-07T01:52:35.172Z,0.00
2018-07-07T01:53:35.174Z,0.00
2018-07-07T01:54:35.176Z,0.00
2018-07-07T01:55:35.177Z,0.00
2018-07-07T01:56:35.177Z,0.00
2018-07-07T01:57:35.180Z,0.00
2018-07-07T01:58:35.181Z,0.00
2018-07-07T01:59:35.184Z,0.00
2018-07-07T02:00:35.210Z,0.00
2018-07-07T02:01:35.184Z,0.00
2018-07-07T02:02:35.188Z,0.00
2018-07-07T02:03:35.187Z,0.00
2018-07-07T02:04:35.188Z,0.00
2018-07-07T02:05:35.191Z,0.00
2018-07-07T02:06:35.193Z,0.00
2018-07-07T02:07:35.194Z,0.00
2018-07-07T02:08:35.196Z,0.00
2018-07-07T02:09:35.196Z,0.00
2018-07-07T02:10:35.200Z,0.00
2018-07-07T02:11:35.200Z,0.00
2018-07-07T02:12:35.200Z,0.00
2018-07-07T02:13:35.202Z,0.00
2018-07-07T02:14:35.205Z,0.00
2018-07-07T02:15:35.207Z,0.00
2018-07-07T02:16:35.206Z,0.00
2018-07-07T02:17:35.208Z,0.00
2018-07-07T02:18:35.211Z,0.00
2018-07-07T02:19:35.213Z,0.00
2018-07-07T02:20:35.212Z,0.00
2018-07-07T02:21:35.218Z,0.00
2018-07-07T02:22:35.216Z,0.00
2018-07-07T02:23:35.218Z,0.00
2018-07-07T02:24:35.218Z,0.00
2018-07-07T02:25:35.221Z,0.00
2018-07-07T02:26:35.223Z,0.00
2018-07-07T02:27:35.225Z,0.00
2018-07-07T02:28:35.224Z,0.00
2018-07-07T02:29:35.229Z,0.00
2018-07-07T02:30:35.229Z,0.00
2018-07-07T02:31:35.231Z,0.00
2018-07-07T02:32:35.233Z,0.00
2018-07-07T02:33:35.235Z,0.00
2018-07-07T02:34:35.236Z,0.00
2018-07-07T02:35:35.238Z,0.00
2018-07-07T02:36:35.238Z,0.00
2018-07-07T02:37:35.240Z,0.00
2018-07-07T02:38:35.241Z,4.00
2018-07-07T02:39:35.245Z,4.00
2018-07-07T02:40:35.247Z,4.00
2018-07-07T02:41:35.247Z,4.00
2018-07-07T02:42:35.248Z,4.00
2018-07-07T02:43:35.251Z,0.00
2018-07-07T02:44:35.250Z,0.00
2018-07-07T02:45:35.252Z,0.00
2018-07-07T02:46:35.260Z,4.00
2018-07-07T02:47:35.258Z,4.00
2018-07-07T02:48:35.258Z,4.00
2018-07-07T02:49:35.262Z,4.00
2018-07-07T02:50:35.308Z,4.00
2018-07-07T02:51:35.264Z,8.00
2018-07-07T02:52:35.274Z,4.00
2018-07-07T02:53:35.265Z,8.00
2018-07-07T02:54:35.267Z,8.00
2018-07-07T02:55:35.269Z,12.00
2018-07-07T02:56:35.276Z,8.00
2018-07-07T02:57:35.272Z,12.00
2018-07-07T02:58:35.273Z,12.00
2018-07-07T02:59:35.278Z,12.00
2018-07-07T03:00:35.277Z,16.00
2018-07-07T03:01:35.278Z,20.00
2018-07-07T03:02:35.280Z,20.00
2018-07-07T03:03:35.282Z,24.00
2018-07-07T03:04:35.282Z,28.00
2018-07-07T03:05:35.283Z,32.00
2018-07-07T03:06:35.285Z,36.00
2018-07-07T03:07:35.287Z,44.00
2018-07-07T03:08:35.291Z,52.00
2018-07-07T03:09:35.289Z,56.00
2018-07-07T03:10:35.292Z,64.00
2018-07-07T03:11:35.300Z,72.00
2018-07-07T03:12:35.296Z,76.00
2018-07-07T03:13:35.295Z,84.00
2018-07-07T03:14:35.299Z,96.00
2018-07-07T03:15:35.299Z,104.00
2018-07-07T03:16:35.300Z,108.00
2018-07-07T03:17:35.303Z,120.00
2018-07-07T03:18:35.303Z,128.00
2018-07-07T03:19:35.304Z,136.00
2018-07-07T03:20:35.305Z,144.00
2018-07-07T03:21:35.308Z,156.00
2018-07-07T03:22:35.310Z,168.00
2018-07-07T03:23:35.311Z,180.00
2018-07-07T03:24:35.312Z,196.00
2018-07-07T03:25:35.313Z,204.00
2018-07-07T03:26:35.315Z,224.00
2018-07-07T03:27:35.320Z,240.00
2018-07-07T03:28:35.317Z,260.00
2018-07-07T03:29:35.319Z,280.00
2018-07-07T03:30:35.322Z,304.00
2018-07-07T03:31:35.321Z,324.00
2018-07-07T03:32:35.323Z,344.00
2018-07-07T03:33:35.323Z,360.00
2018-07-07T03:34:35.325Z,380.00
2018-07-07T03:35:35.326Z,400.00
2018-07-07T03:36:35.329Z,424.00
2018-07-07T03:37:35.329Z,444.00
2018-07-07T03:38:35.330Z,460.00
2018-07-07T03:39:35.332Z,468.00
2018-07-07T03:40:35.333Z,476.00
2018-07-07T03:41:35.334Z,484.00
2018-07-07T03:42:35.336Z,492.00
2018-07-07T03:43:35.335Z,504.00
2018-07-07T03:44:35.338Z,524.00
2018-07-07T03:45:35.338Z,540.00
2018-07-07T03:46:35.340Z,560.00
2018-07-07T03:47:35.341Z,580.00
2018-07-07T03:48:35.342Z,604.00
2018-07-07T03:49:35.343Z,644.00
2018-07-07T03:50:35.345Z,712.00
2018-07-07T03:51:35.345Z,780.00
2018-07-07T03:52:35.347Z,824.00
2018-07-07T03:53:35.347Z,884.00
2018-07-07T03:54:35.349Z,976.00
2018-07-07T03:55:35.350Z,1076.00
2018-07-07T03:56:35.349Z,1140.00
2018-07-07T03:57:35.353Z,1188.00
2018-07-07T03:58:35.352Z,1216.00
2018-07-07T03:59:35.355Z,1240.00
2018-07-07T04:00:35.356Z,1268.00
2018-07-07T04:01:35.355Z,1304.00
2018-07-07T04:02:35.356Z,1320.00
2018-07-07T04:03:35.359Z,1336.00
2018-07-07T04:04:35.358Z,1356.00
2018-07-07T04:05:35.359Z,1380.00
2018-07-07T04:06:35.363Z,1408.00
2018-07-07T04:07:35.363Z,1440.00
2018-07-07T04:08:35.363Z,1480.00
2018-07-07T04:09:35.364Z,1520.00
2018-07-07T04:10:35.364Z,1564.00
2018-07-07T04:11:35.369Z,1608.00
2018-07-07T04:12:35.366Z,1648.00
2018-07-07T04:13:35.367Z,1680.00
2018-07-07T04:14:35.369Z,1716.00
2018-07-07T04:15:35.370Z,1764.00
2018-07-07T04:16:35.369Z,1828.00
2018-07-07T04:17:35.372Z,1892.00
2018-07-07T04:18:35.372Z,1940.00
2018-07-07T04:19:35.374Z,1980.00
2018-07-07T04:20:35.374Z,2036.00
2018-07-07T04:21:35.376Z,2120.00
2018-07-07T04:22:35.377Z,2188.00
2018-07-07T04:23:35.380Z,2236.00
2018-07-07T04:24:35.378Z,2316.00
2018-07-07T04:25:35.379Z,2428.00
2018-07-07T04:26:35.381Z,2524.00
2018-07-07T04:27:35.381Z,2600.00
2018-07-07T04:28:35.411Z,2756.00
2018-07-07T04:29:35.381Z,3028.00
2018-07-07T04:30:35.422Z,3340.00
2018-07-07T04:31:35.388Z,3484.00
2018-07-07T04:32:35.386Z,3488.00
2018-07-07T04:33:35.387Z,3664.00
2018-07-07T04:34:35.388Z,3868.00
2018-07-07T04:35:35.390Z,3952.00
2018-07-07T04:36:35.389Z,3924.00
2018-07-07T04:37:35.392Z,3852.00
2018-07-07T04:38:35.392Z,3812.00
2018-07-07T04:39:35.394Z,3804.00
2018-07-07T04:40:35.395Z,3844.00
2018-07-07T04:41:35.396Z,3904.00
2018-07-07T04:42:35.396Z,3928.00
2018-07-07T04:43:35.396Z,3964.00
2018-07-07T04:44:35.399Z,4020.00
2018-07-07T04:45:35.400Z,4060.00
2018-07-07T04:46:35.402Z,4012.00
2018-07-07T04:47:35.402Z,3876.00
2018-07-07T04:48:35.403Z,3736.00
2018-07-07T04:49:35.407Z,3628.00
2018-07-07T04:50:35.406Z,3560.00
2018-07-07T04:51:35.406Z,3488.00
2018-07-07T04:52:35.409Z,3476.00
2018-07-07T04:53:35.409Z,3532.00
2018-07-07T04:54:35.411Z,3624.00
2018-07-07T04:55:35.413Z,3744.00
2018-07-07T04:56:35.414Z,3900.00
2018-07-07T04:57:35.415Z,4048.00
2018-07-07T04:58:35.414Z,4184.00
2018-07-07T04:59:35.418Z,4328.00
2018-07-07T05:00:35.418Z,4580.00
2018-07-07T05:01:35.420Z,5084.00
2018-07-07T05:02:35.422Z,5772.00
2018-07-07T05:03:35.424Z,6224.00
2018-07-07T05:04:35.432Z,6500.00
2018-07-07T05:05:35.426Z,6684.00
2018-07-07T05:06:35.428Z,6840.00
2018-07-07T05:07:35.428Z,7084.00
2018-07-07T05:08:35.428Z,7368.00
2018-07-07T05:09:35.433Z,7572.00
2018-07-07T05:10:35.438Z,7704.00
2018-07-07T05:11:35.436Z,7832.00
2018-07-07T05:12:35.437Z,7992.00
2018-07-07T05:13:35.440Z,8136.00
2018-07-07T05:14:35.441Z,8244.00
2018-07-07T05:15:35.493Z,8348.00
2018-07-07T05:16:35.444Z,8460.00
2018-07-07T05:17:35.447Z,8644.00
2018-07-07T05:18:35.447Z,8928.00
2018-07-07T05:19:35.451Z,9228.00
2018-07-07T05:20:35.451Z,9656.00
2018-07-07T05:21:35.455Z,12304.00
2018-07-07T05:22:35.459Z,14956.00
2018-07-07T05:23:35.460Z,17504.00
2018-07-07T05:24:35.462Z,23520.00
2018-07-07T05:25:35.464Z,20928.00
2018-07-07T05:26:35.467Z,34656.00
2018-07-07T05:27:35.469Z,39232.00
2018-07-07T05:28:35.474Z,27488.00
2018-07-07T05:29:35.477Z,11544.00
2018-07-07T05:30:35.480Z,25376.00
2018-07-07T05:31:35.484Z,30912.00
2018-07-07T05:32:35.485Z,44608.00
2018-07-07T05:33:35.492Z,24640.00
2018-07-07T05:34:35.494Z,32576.00
2018-07-07T05:35:35.499Z,52832.00
2018-07-07T05:36:35.502Z,47552.00
2018-07-07T05:37:35.507Z,38528.00
2018-07-07T05:38:35.515Z,30912.00
2018-07-07T05:39:35.518Z,20288.00
2018-07-07T05:40:35.522Z,11004.00
2018-07-07T05:41:35.528Z,7224.00
2018-07-07T05:42:35.534Z,6828.00
2018-07-07T05:43:35.540Z,6768.00
2018-07-07T05:44:35.547Z,6840.00
2018-07-07T05:45:35.553Z,6808.00
2018-07-07T05:46:35.558Z,6788.00
2018-07-07T05:47:35.566Z,6736.00
2018-07-07T05:48:35.569Z,6744.00
2018-07-07T05:49:35.576Z,6696.00
2018-07-07T05:50:35.582Z,6532.00
2018-07-07T05:51:35.589Z,6320.00
2018-07-07T05:52:35.595Z,6168.00
2018-07-07T05:53:35.604Z,6088.00
2018-07-07T05:54:35.606Z,6032.00
2018-07-07T05:55:35.611Z,6028.00
2018-07-07T05:56:35.616Z,6032.00
2018-07-07T05:57:35.623Z,6020.00
2018-07-07T05:58:35.629Z,6020.00
2018-07-07T05:59:35.634Z,5992.00
2018-07-07T06:00:35.638Z,5956.00
2018-07-07T06:01:35.645Z,5944.00
2018-07-07T06:02:35.649Z,5948.00
2018-07-07T06:03:35.653Z,5980.00
2018-07-07T06:04:35.660Z,6024.00
2018-07-07T06:05:35.664Z,6032.00
2018-07-07T06:06:35.668Z,6044.00
2018-07-07T06:07:35.674Z,6076.00
2018-07-07T06:08:35.677Z,6136.00
2018-07-07T06:09:35.681Z,6192.00
2018-07-07T06:10:35.687Z,6264.00
2018-07-07T06:11:35.692Z,6344.00
2018-07-07T06:12:35.695Z,6416.00
2018-07-07T06:13:35.700Z,6468.00
2018-07-07T06:14:35.705Z,6424.00
2018-07-07T06:15:35.709Z,6364.00
2018-07-07T06:16:35.713Z,6372.00
2018-07-07T06:17:35.716Z,6408.00
2018-07-07T06:18:35.721Z,6456.00
2018-07-07T06:19:35.724Z,6524.00
2018-07-07T06:20:35.727Z,6596.00
2018-07-07T06:21:35.733Z,6632.00
2018-07-07T06:22:35.737Z,6668.00
2018-07-07T06:23:35.740Z,6684.00
2018-07-07T06:24:35.745Z,6700.00
2018-07-07T06:25:35.749Z,6688.00
2018-07-07T06:26:35.836Z,6728.00
2018-07-07T06:27:35.758Z,6800.00
2018-07-07T06:28:35.761Z,6844.00
2018-07-07T06:29:35.766Z,6868.00
2018-07-07T06:30:35.770Z,6876.00
2018-07-07T06:31:35.772Z,6880.00
2018-07-07T06:32:35.777Z,6888.00
2018-07-07T06:33:35.781Z,6904.00
2018-07-07T06:34:35.786Z,6924.00
2018-07-07T06:35:35.788Z,7016.00
2018-07-07T06:36:35.790Z,7108.00
2018-07-07T06:37:35.796Z,7212.00
2018-07-07T06:38:35.800Z,7304.00
2018-07-07T06:39:35.804Z,7340.00
2018-07-07T06:40:35.807Z,7360.00
2018-07-07T06:41:35.811Z,7340.00
2018-07-07T06:42:35.814Z,7300.00
2018-07-07T06:43:35.830Z,7268.00
2018-07-07T06:44:35.823Z,7308.00
2018-07-07T06:45:35.827Z,7356.00
2018-07-07T06:46:35.831Z,7324.00
2018-07-07T06:47:35.837Z,7256.00
2018-07-07T06:48:35.839Z,7220.00
2018-07-07T06:49:35.841Z,7228.00
2018-07-07T06:50:35.848Z,7312.00
2018-07-07T06:51:35.851Z,7416.00
2018-07-07T06:52:35.855Z,7468.00
2018-07-07T06:53:35.871Z,7552.00
2018-07-07T06:54:35.862Z,7580.00
2018-07-07T06:55:35.867Z,7612.00
2018-07-07T06:56:35.871Z,7636.00
2018-07-07T06:57:35.873Z,7612.00
2018-07-07T06:58:35.880Z,7608.00
2018-07-07T06:59:35.919Z,7564.00
2018-07-07T07:00:35.888Z,7528.00
2018-07-07T07:01:35.889Z,7472.00
2018-07-07T07:02:35.918Z,7440.00
2018-07-07T07:03:35.898Z,7352.00
2018-07-07T07:04:35.904Z,7412.00
2018-07-07T07:05:35.905Z,7464.00
2018-07-07T07:06:35.962Z,7376.00
2018-07-07T07:07:35.916Z,7376.00
2018-07-07T07:08:35.920Z,7380.00
2018-07-07T07:09:35.926Z,7400.00
2018-07-07T07:10:35.927Z,7472.00
2018-07-07T07:11:35.931Z,7444.00
2018-07-07T07:12:35.935Z,7344.00
2018-07-07T07:13:35.939Z,7288.00
2018-07-07T07:14:35.943Z,7320.00
2018-07-07T07:15:35.949Z,7396.00
2018-07-07T07:16:35.951Z,7436.00
2018-07-07T07:17:35.955Z,7448.00
2018-07-07T07:18:35.962Z,7456.00
2018-07-07T07:19:35.968Z,7412.00
2018-07-07T07:20:35.970Z,7400.00
2018-07-07T07:21:35.975Z,7444.00
2018-07-07T07:22:35.977Z,7540.00
2018-07-07T07:23:35.985Z,7684.00
2018-07-07T07:24:35.986Z,7776.00
2018-07-07T07:25:35.989Z,7808.00
2018-07-07T07:26:35.996Z,7884.00
2018-07-07T07:27:35.999Z,8020.00
2018-07-07T07:28:36.004Z,8112.00
2018-07-07T07:29:36.009Z,8112.00
2018-07-07T07:30:36.013Z,8076.00
2018-07-07T07:31:36.017Z,8552.00
2018-07-07T07:32:36.030Z,30944.00
2018-07-07T07:33:36.027Z,65504.00
2018-07-07T07:34:36.032Z,88064.00
2018-07-07T07:35:36.036Z,87328.00
2018-07-07T07:36:36.042Z,88544.00
2018-07-07T07:37:36.048Z,88960.00
2018-07-07T07:38:36.054Z,88320.00
2018-07-07T07:39:36.060Z,87808.00
2018-07-07T07:40:36.065Z,87680.00
2018-07-07T07:41:36.074Z,87296.00
2018-07-07T07:42:36.083Z,86400.00
2018-07-07T07:43:36.090Z,88160.00
2018-07-07T07:44:36.098Z,86880.00
2018-07-07T07:45:36.111Z,83616.00
2018-07-07T07:46:36.120Z,85024.00
2018-07-07T07:47:36.131Z,85984.00
2018-07-07T07:48:36.138Z,85120.00
2018-07-07T07:49:36.149Z,82848.00
2018-07-07T07:50:36.160Z,85344.00
2018-07-07T07:51:36.173Z,86944.00
2018-07-07T07:52:36.182Z,87840.00
2018-07-07T07:53:36.195Z,86144.00
2018-07-07T07:54:36.209Z,87712.00
2018-07-07T07:55:36.223Z,86464.00
2018-07-07T07:56:36.235Z,86752.00
2018-07-07T07:57:36.247Z,86976.00
2018-07-07T07:58:36.262Z,84832.00
2018-07-07T07:59:36.279Z,85152.00
2018-07-07T08:00:36.289Z,83936.00
2018-07-07T08:01:36.304Z,83712.00
2018-07-07T08:02:36.319Z,85056.00
2018-07-07T08:03:36.333Z,85184.00
2018-07-07T08:04:36.347Z,83264.00
2018-07-07T08:05:36.362Z,82624.00
2018-07-07T08:06:36.375Z,85408.00
2018-07-07T08:07:36.392Z,88768.00
2018-07-07T08:08:36.407Z,88064.00
2018-07-07T08:09:36.421Z,85344.00
2018-07-07T08:10:36.437Z,84448.00
2018-07-07T08:11:36.452Z,82176.00
2018-07-07T08:12:36.467Z,81280.00
2018-07-07T08:13:36.482Z,83520.00
2018-07-07T08:14:36.497Z,84448.00
2018-07-07T08:15:36.513Z,82112.00
2018-07-07T08:16:36.528Z,84320.00
2018-07-07T08:17:36.544Z,83872.00
2018-07-07T08:18:36.559Z,78304.00
2018-07-07T08:19:36.574Z,64192.00
2018-07-07T08:20:36.591Z,65344.00
2018-07-07T08:21:36.605Z,51744.00
2018-07-07T08:22:36.648Z,58112.00
2018-07-07T08:23:36.636Z,80832.00
2018-07-07T08:24:36.651Z,77728.00
2018-07-07T08:25:36.668Z,85312.00
2018-07-07T08:26:36.683Z,76960.00
2018-07-07T08:27:36.698Z,67776.00
2018-07-07T08:28:36.713Z,70432.00
2018-07-07T08:29:36.729Z,63392.00
2018-07-07T08:30:36.744Z,79520.00
2018-07-07T08:31:36.760Z,81728.00
2018-07-07T08:32:36.775Z,83936.00
2018-07-07T08:33:36.789Z,84064.00
2018-07-07T08:34:36.806Z,83520.00
2018-07-07T08:35:36.822Z,81280.00
2018-07-07T08:36:36.836Z,81984.00
2018-07-07T08:37:36.852Z,83264.00
2018-07-07T08:38:36.869Z,85280.00
2018-07-07T08:39:36.884Z,83168.00
2018-07-07T08:40:36.900Z,80384.00
2018-07-07T08:41:36.917Z,78368.00
2018-07-07T08:42:36.932Z,77664.00
2018-07-07T08:43:36.949Z,78688.00
2018-07-07T08:44:36.961Z,78016.00
2018-07-07T08:45:36.979Z,77472.00
2018-07-07T08:46:36.996Z,77952.00
2018-07-07T08:47:37.013Z,79904.00
2018-07-07T08:48:37.074Z,80128.00
2018-07-07T08:49:37.044Z,80160.00
2018-07-07T08:50:37.062Z,80064.00
2018-07-07T08:51:37.084Z,79200.00
2018-07-07T08:52:37.093Z,79200.00
2018-07-07T08:53:37.108Z,79168.00
2018-07-07T08:54:37.126Z,79264.00
2018-07-07T08:55:37.143Z,79840.00
2018-07-07T08:56:37.161Z,78016.00
2018-07-07T08:57:37.174Z,79232.00
2018-07-07T08:58:37.190Z,79552.00
2018-07-07T08:59:37.207Z,79840.00
2018-07-07T09:00:37.223Z,79904.00
2018-07-07T09:01:37.239Z,78816.00
2018-07-07T09:02:37.255Z,76704.00
2018-07-07T09:03:37.272Z,76000.00
2018-07-07T09:04:37.287Z,74624.00
2018-07-07T09:05:37.305Z,74400.00
2018-07-07T09:06:37.323Z,76384.00
2018-07-07T09:07:37.384Z,76640.00
2018-07-07T09:08:37.356Z,76640.00
2018-07-07T09:09:37.370Z,76768.00
2018-07-07T09:10:37.386Z,74368.00
2018-07-07T09:11:37.403Z,73760.00
2018-07-07T09:12:37.417Z,71904.00
2018-07-07T09:13:37.437Z,70688.00
2018-07-07T09:14:37.453Z,71040.00
2018-07-07T09:15:37.475Z,73088.00
2018-07-07T09:16:37.486Z,73888.00
2018-07-07T09:17:37.502Z,75584.00
2018-07-07T09:18:37.519Z,75104.00
2018-07-07T09:19:37.535Z,76128.00
2018-07-07T09:20:37.552Z,61920.00
2018-07-07T09:21:37.574Z,66112.00
2018-07-07T09:22:37.588Z,17112.00
2018-07-07T09:23:37.604Z,50656.00
2018-07-07T09:24:37.655Z,69728.00
2018-07-07T09:25:37.635Z,69408.00
2018-07-07T09:26:37.652Z,69216.00
2018-07-07T09:27:37.670Z,67744.00
2018-07-07T09:28:37.688Z,67968.00
2018-07-07T09:29:37.702Z,67232.00
2018-07-07T09:30:37.719Z,64800.00
2018-07-07T09:31:37.734Z,66528.00
2018-07-07T09:32:37.751Z,66080.00
2018-07-07T09:33:37.765Z,66624.00
2018-07-07T09:34:37.784Z,66176.00
2018-07-07T09:35:37.800Z,67520.00
2018-07-07T09:36:37.816Z,69024.00
2018-07-07T09:37:37.832Z,71296.00
2018-07-07T09:38:37.848Z,74208.00
2018-07-07T09:39:37.863Z,84608.00
2018-07-07T09:40:37.878Z,64288.00
2018-07-07T09:41:37.895Z,33440.00
2018-07-07T09:42:37.912Z,26016.00
2018-07-07T09:43:37.928Z,26432.00
2018-07-07T09:44:37.944Z,26560.00
2018-07-07T09:45:37.961Z,26400.00
2018-07-07T09:46:37.976Z,25728.00
2018-07-07T09:47:37.996Z,24800.00
2018-07-07T09:48:38.007Z,23552.00
2018-07-07T09:49:38.026Z,23296.00
2018-07-07T09:50:38.042Z,22688.00
2018-07-07T09:51:38.056Z,22240.00
2018-07-07T09:52:38.072Z,21952.00
2018-07-07T09:53:38.089Z,21504.00
2018-07-07T09:54:38.104Z,21056.00
2018-07-07T09:55:38.121Z,21056.00
2018-07-07T09:56:38.136Z,20736.00
2018-07-07T09:57:38.152Z,20512.00
2018-07-07T09:58:38.168Z,20320.00
2018-07-07T09:59:38.184Z,20032.00
2018-07-07T10:00:38.200Z,20000.00
2018-07-07T10:01:38.216Z,19904.00
2018-07-07T10:02:38.232Z,19616.00
2018-07-07T10:03:38.247Z,19424.00
2018-07-07T10:04:38.266Z,19328.00
2018-07-07T10:05:38.280Z,19360.00
2018-07-07T10:06:38.295Z,19104.00
2018-07-07T10:07:38.364Z,19072.00
2018-07-07T10:08:38.326Z,19136.00
2018-07-07T10:09:38.342Z,18656.00
2018-07-07T10:10:38.357Z,18464.00
2018-07-07T10:11:38.373Z,18464.00
2018-07-07T10:12:38.388Z,18272.00
2018-07-07T10:13:38.404Z,18176.00
2018-07-07T10:14:38.420Z,18048.00
2018-07-07T10:15:38.437Z,18048.00
2018-07-07T10:16:38.451Z,18176.00
2018-07-07T10:17:38.468Z,18240.00
2018-07-07T10:18:38.485Z,18368.00
2018-07-07T10:19:38.498Z,18208.00
2018-07-07T10:20:38.574Z,18112.00
2018-07-07T10:21:38.530Z,17728.00
2018-07-07T10:22:38.545Z,17504.00
2018-07-07T10:23:38.565Z,17280.00
2018-07-07T10:24:38.575Z,16040.00
2018-07-07T10:25:38.592Z,16704.00
2018-07-07T10:26:38.606Z,16608.00
2018-07-07T10:27:38.621Z,16288.00
2018-07-07T10:28:38.634Z,16160.00
2018-07-07T10:29:38.653Z,16060.00
2018-07-07T10:30:38.665Z,15908.00
2018-07-07T10:31:38.778Z,15784.00
2018-07-07T10:32:38.694Z,15580.00
2018-07-07T10:33:38.710Z,15556.00
2018-07-07T10:34:38.725Z,15404.00
2018-07-07T10:35:38.741Z,15708.00
2018-07-07T10:36:38.756Z,16224.00
2018-07-07T10:37:38.771Z,16608.00
2018-07-07T10:38:38.785Z,16896.00
2018-07-07T10:39:38.804Z,16864.00
2018-07-07T10:40:38.814Z,17088.00
2018-07-07T10:41:38.829Z,17504.00
2018-07-07T10:42:38.847Z,18048.00
2018-07-07T10:43:38.883Z,17984.00
2018-07-07T10:44:38.875Z,18848.00
2018-07-07T10:45:38.970Z,20832.00
2018-07-07T10:46:38.903Z,22208.00
2018-07-07T10:47:38.921Z,22432.00
2018-07-07T10:48:38.933Z,26496.00
2018-07-07T10:49:38.948Z,32288.00
2018-07-07T10:50:38.964Z,31872.00
2018-07-07T10:51:38.978Z,29984.00
2018-07-07T10:52:38.992Z,27072.00
2018-07-07T10:53:39.006Z,24576.00
2018-07-07T10:54:39.021Z,22112.00
2018-07-07T10:55:39.121Z,20160.00
2018-07-07T10:56:39.048Z,19552.00
2018-07-07T10:57:39.069Z,18912.00
2018-07-07T10:58:39.082Z,17056.00
2018-07-07T10:59:39.092Z,15216.00
2018-07-07T11:00:39.107Z,14216.00
2018-07-07T11:01:39.122Z,13720.00
2018-07-07T11:02:39.176Z,13364.00
2018-07-07T11:03:39.151Z,13124.00
2018-07-07T11:04:39.165Z,12716.00
2018-07-07T11:05:39.179Z,12492.00
2018-07-07T11:06:39.195Z,12200.00
2018-07-07T11:07:39.208Z,11960.00
2018-07-07T11:08:39.220Z,11756.00
2018-07-07T11:09:39.234Z,11484.00
2018-07-07T11:10:39.250Z,11380.00
2018-07-07T11:11:39.306Z,11520.00
2018-07-07T11:12:39.276Z,11324.00
2018-07-07T11:13:39.289Z,11228.00
2018-07-07T11:14:39.304Z,11084.00
2018-07-07T11:15:39.322Z,10872.00
2018-07-07T11:16:39.333Z,10748.00
2018-07-07T11:17:39.345Z,10648.00
2018-07-07T11:18:39.361Z,9972.00
2018-07-07T11:19:39.373Z,9412.00
2018-07-07T11:20:39.388Z,9324.00
2018-07-07T11:21:39.400Z,8408.00
2018-07-07T11:22:39.413Z,9088.00
2018-07-07T11:23:39.425Z,8336.00
2018-07-07T11:24:39.437Z,8756.00
2018-07-07T11:25:39.451Z,8552.00
2018-07-07T11:26:39.465Z,7744.00
2018-07-07T11:27:39.478Z,7852.00
2018-07-07T11:28:39.490Z,7760.00
2018-07-07T11:29:39.530Z,7676.00
2018-07-07T11:30:39.515Z,7580.00
2018-07-07T11:31:39.526Z,7572.00
2018-07-07T11:32:39.539Z,7632.00
2018-07-07T11:33:39.551Z,7576.00
2018-07-07T11:34:39.563Z,7528.00
2018-07-07T11:35:39.576Z,7432.00
2018-07-07T11:36:39.782Z,7396.00
2018-07-07T11:37:39.599Z,7680.00
2018-07-07T11:38:39.611Z,7592.00
2018-07-07T11:39:39.623Z,7436.00
2018-07-07T11:40:39.633Z,7372.00
2018-07-07T11:41:39.644Z,7280.00
2018-07-07T11:42:39.659Z,7240.00
2018-07-07T11:43:39.669Z,7108.00
2018-07-07T11:44:39.677Z,7272.00
2018-07-07T11:45:39.687Z,7184.00
2018-07-07T11:46:39.699Z,7128.00
2018-07-07T11:47:39.709Z,7240.00
2018-07-07T11:48:39.719Z,7088.00
2018-07-07T11:49:39.730Z,7128.00
2018-07-07T11:50:39.744Z,7144.00
2018-07-07T11:51:39.751Z,7000.00
2018-07-07T11:52:39.760Z,6804.00
2018-07-07T11:53:39.772Z,7028.00
2018-07-07T11:54:39.783Z,6980.00
2018-07-07T11:55:39.793Z,6840.00
2018-07-07T11:56:39.803Z,6568.00
2018-07-07T11:57:39.813Z,6584.00
2018-07-07T11:58:39.824Z,6668.00
2018-07-07T11:59:39.834Z,6604.00
2018-07-07T12:00:39.844Z,6540.00
2018-07-07T12:01:39.853Z,6492.00
2018-07-07T12:02:39.866Z,6452.00
2018-07-07T12:03:39.874Z,6480.00
2018-07-07T12:04:40.034Z,6464.00
2018-07-07T12:05:39.894Z,6468.00
2018-07-07T12:06:39.904Z,6528.00
2018-07-07T12:07:39.914Z,6260.00
2018-07-07T12:08:39.923Z,6552.00
2018-07-07T12:09:39.932Z,6316.00
2018-07-07T12:10:39.944Z,6212.00
2018-07-07T12:11:40.019Z,6880.00
2018-07-07T12:12:39.962Z,6816.00
2018-07-07T12:13:39.971Z,7104.00
2018-07-07T12:14:39.981Z,6488.00
2018-07-07T12:15:39.992Z,6592.00
2018-07-07T12:16:40.000Z,6700.00